Aviation Digital Data Service (ADDS)

Output produced by METARs form (0126 UTC 28 July 2015)
found at http://aviationweather.gov/adds/metars/
 
KAEX 272320Z 2800/2824 VRB03KT P6SM FEW060 
     FM281100 00000KT 3SM BR SKC 
     FM281400 VRB05KT P6SM SCT070